Time;durP1;ratioP1;P1;durP2;ratioP2;P2;SDS_P1;SDS_P2;PMS_P1;PMS_P2;Temp;Humidity;BMP_temperature;BMP_pressure;BME280_temperature;BME280_humidity;BME280_pressure;Samples;Min_cycle;Max_cycle;Signal;HPM_P1;HPM_P2
2021/04/02 00:00:38;;;;;;;28.90;20.85;;;10.40;99.90;;;;;;4973589;28;20053;-72
2021/04/02 00:03:12;;;;;;;27.55;21.67;;;10.30;99.90;;;;;;4974087;28;20015;-71
2021/04/02 00:05:38;;;;;;;25.17;20.83;;;10.30;99.90;;;;;;4967162;28;20540;-72
2021/04/02 00:08:04;;;;;;;28.00;20.77;;;10.40;99.90;;;;;;4973807;28;20027;-71
2021/04/02 00:10:35;;;;;;;26.15;20.25;;;10.30;99.90;;;;;;4973674;28;20027;-71
2021/04/02 00:13:01;;;;;;;27.75;20.90;;;10.40;99.90;;;;;;4973842;28;20109;-71
2021/04/02 00:15:27;;;;;;;25.55;20.50;;;10.40;99.90;;;;;;4973212;28;20098;-71
2021/04/02 00:17:52;;;;;;;28.23;20.25;;;10.40;99.90;;;;;;4972634;28;20058;-71
2021/04/02 00:20:19;;;;;;;26.08;19.75;;;10.40;99.90;;;;;;4967124;28;20073;-74
2021/04/02 00:22:45;;;;;;;25.42;20.70;;;10.30;99.90;;;;;;4972317;28;20117;-72
2021/04/02 00:25:12;;;;;;;26.33;21.58;;;10.20;99.90;;;;;;4973217;28;20046;-72
2021/04/02 00:27:39;;;;;;;26.98;21.38;;;10.20;99.90;;;;;;4972319;28;20448;-73
2021/04/02 00:30:14;;;;;;;26.00;19.80;;;10.20;99.90;;;;;;4972831;28;20105;-73
2021/04/02 00:32:40;;;;;;;24.42;18.67;;;10.10;99.90;;;;;;4959666;28;20038;-75
2021/04/02 00:35:06;;;;;;;23.33;18.52;;;10.00;99.90;;;;;;4973158;28;20031;-75
2021/04/02 00:37:32;;;;;;;23.42;18.35;;;9.90;99.90;;;;;;4973409;28;20065;-74
2021/04/02 00:39:57;;;;;;;25.20;20.08;;;9.90;99.90;;;;;;4972140;28;20030;-74
2021/04/02 00:42:23;;;;;;;24.75;19.00;;;9.80;99.90;;;;;;4973369;28;20485;-74
2021/04/02 00:44:48;;;;;;;25.20;19.27;;;9.70;99.90;;;;;;4973107;28;20439;-75
2021/04/02 00:47:14;;;;;;;24.05;19.35;;;9.90;99.90;;;;;;4971867;28;20019;-74
2021/04/02 00:49:39;;;;;;;23.10;18.02;;;9.90;99.90;;;;;;4973200;28;20548;-74
2021/04/02 00:52:05;;;;;;;25.38;18.90;;;9.80;99.90;;;;;;4973197;28;20031;-75
2021/04/02 00:54:31;;;;;;;21.15;17.05;;;9.60;99.90;;;;;;4972855;28;20030;-72
2021/04/02 00:56:56;;;;;;;20.88;16.45;;;9.60;99.90;;;;;;4971823;28;20497;-72
2021/04/02 00:59:22;;;;;;;23.52;16.38;;;9.70;99.90;;;;;;4973177;28;20409;-74
2021/04/02 01:01:47;;;;;;;19.38;15.65;;;9.50;99.90;;;;;;4968498;28;20127;-74
2021/04/02 01:04:13;;;;;;;18.58;15.05;;;9.40;99.90;;;;;;4970572;28;20043;-74
2021/04/02 01:06:41;;;;;;;16.73;14.25;;;9.40;99.90;;;;;;4972989;28;20030;-74
2021/04/02 01:09:07;;;;;;;16.98;15.18;;;9.30;99.90;;;;;;4972953;28;20106;-76
2021/04/02 01:11:33;;;;;;;17.10;13.52;;;9.10;99.90;;;;;;4972949;28;20031;-76
2021/04/02 01:13:59;;;;;;;15.70;14.02;;;9.30;99.90;;;;;;4971600;28;20050;-75
2021/04/02 01:16:33;;;;;;;16.05;13.98;;;9.10;99.90;;;;;;4972662;28;20030;-75
2021/04/02 01:19:29;;;;;;;16.48;14.13;;;9.00;99.90;;;;;;4973028;28;20082;-75
2021/04/02 01:22:00;;;;;;;19.35;13.73;;;8.90;99.90;;;;;;4969502;28;20093;-75
2021/04/02 01:24:33;;;;;;;19.08;15.30;;;9.00;99.90;;;;;;4964554;28;20023;-75
2021/04/02 01:27:51;;;;;;;17.42;14.55;;;8.90;99.90;;;;;;4972923;28;20489;-75
2021/04/02 01:30:17;;;;;;;16.00;13.57;;;8.80;99.90;;;;;;4949353;28;20031;-75
2021/04/02 01:32:45;;;;;;;15.82;14.32;;;8.60;99.90;;;;;;4963973;28;20038;-75
2021/04/02 01:35:17;;;;;;;16.70;14.75;;;8.60;99.90;;;;;;4962938;28;20038;-75
2021/04/02 01:37:51;;;;;;;16.30;14.60;;;8.60;99.90;;;;;;4972898;28;20076;-74
2021/04/02 01:40:18;;;;;;;16.60;14.82;;;8.60;99.90;;;;;;4969752;28;20037;-75
2021/04/02 01:42:46;;;;;;;15.88;14.27;;;8.40;99.90;;;;;;4976664;28;20018;-74
2021/04/02 01:45:13;;;;;;;16.73;15.02;;;8.30;99.90;;;;;;4975093;28;20030;-74
2021/04/02 01:47:40;;;;;;;16.92;15.13;;;8.20;99.90;;;;;;4974990;28;20049;-75
2021/04/02 01:50:08;;;;;;;17.70;15.88;;;8.20;99.90;;;;;;4971916;28;20494;-75
2021/04/02 01:52:35;;;;;;;16.25;14.75;;;8.00;99.90;;;;;;4970724;28;20038;-75
2021/04/02 01:55:00;;;;;;;17.08;14.43;;;8.10;99.90;;;;;;4974814;28;20059;-74
2021/04/02 01:57:28;;;;;;;17.08;15.27;;;8.00;99.90;;;;;;4969664;28;20493;-74
2021/04/02 01:59:55;;;;;;;16.70;14.75;;;7.80;99.90;;;;;;4974092;28;20031;-75
2021/04/02 02:02:21;;;;;;;15.82;14.13;;;7.80;99.90;;;;;;4975926;28;20019;-75
2021/04/02 02:04:48;;;;;;;16.02;14.50;;;7.90;99.90;;;;;;4974789;28;20074;-75
2021/04/02 02:07:15;;;;;;;15.82;13.68;;;7.80;99.90;;;;;;4974825;28;20023;-75
2021/04/02 02:09:43;;;;;;;16.27;14.68;;;7.80;99.90;;;;;;4974780;28;20050;-74
2021/04/02 02:12:13;;;;;;;15.73;14.23;;;7.60;99.90;;;;;;4974650;28;20097;-74
2021/04/02 02:14:41;;;;;;;16.08;14.38;;;7.50;99.90;;;;;;4975720;28;20118;-74
2021/04/02 02:17:09;;;;;;;15.63;14.10;;;7.50;99.90;;;;;;4976016;28;20603;-73
2021/04/02 02:19:39;;;;;;;17.35;14.50;;;7.50;99.90;;;;;;4975838;28;20031;-74
2021/04/02 02:22:07;;;;;;;16.38;14.68;;;7.50;99.90;;;;;;4974812;28;20030;-73
2021/04/02 02:24:35;;;;;;;17.45;15.70;;;7.40;99.90;;;;;;4976094;28;20022;-74
2021/04/02 02:27:01;;;;;;;17.40;15.50;;;7.40;99.90;;;;;;4969087;28;20024;-73
2021/04/02 02:29:28;;;;;;;16.75;14.90;;;7.30;99.90;;;;;;4967238;28;20551;-73
2021/04/02 02:31:54;;;;;;;16.85;15.15;;;7.30;99.90;;;;;;4974204;28;20062;-73
2021/04/02 02:34:19;;;;;;;17.73;15.93;;;7.30;99.90;;;;;;4975365;28;20034;-73
2021/04/02 02:36:46;;;;;;;16.30;14.70;;;7.20;99.90;;;;;;4974221;28;20500;-74
2021/04/02 02:39:14;;;;;;;15.52;13.95;;;7.30;99.90;;;;;;4975499;28;20543;-74
2021/04/02 02:41:41;;;;;;;16.45;14.85;;;7.30;99.90;;;;;;4974217;28;20113;-75
2021/04/02 02:44:07;;;;;;;17.10;15.27;;;7.20;99.90;;;;;;4975686;28;20022;-74
2021/04/02 02:46:33;;;;;;;18.67;15.45;;;7.10;99.90;;;;;;4976875;28;20015;-75
2021/04/02 02:49:15;;;;;;;17.65;15.85;;;6.90;99.90;;;;;;4975932;28;20046;-75
2021/04/02 02:51:43;;;;;;;15.90;14.27;;;6.90;99.90;;;;;;4963933;28;20027;-75
2021/04/02 02:54:13;;;;;;;16.90;15.20;;;6.90;99.90;;;;;;4975297;28;20089;-74
2021/04/02 02:56:42;;;;;;;16.00;14.23;;;6.90;99.90;;;;;;4976541;28;20031;-74
2021/04/02 02:59:13;;;;;;;15.32;13.82;;;7.00;99.90;;;;;;4974793;28;20093;-75
2021/04/02 03:01:39;;;;;;;14.82;13.43;;;7.10;99.90;;;;;;4975044;28;20045;-76
2021/04/02 03:04:07;;;;;;;14.68;13.25;;;6.90;99.90;;;;;;4974867;28;20027;-74
2021/04/02 03:06:37;;;;;;;14.38;12.50;;;6.80;99.90;;;;;;4967305;28;20528;-75
2021/04/02 03:09:06;;;;;;;12.65;11.35;;;7.00;99.90;;;;;;4972405;28;20062;-74
2021/04/02 03:11:33;;;;;;;11.90;10.80;;;7.10;99.90;;;;;;4965203;28;20093;-74
2021/04/02 03:14:00;;;;;;;10.02;8.98;;;7.00;99.90;;;;;;4961758;28;20019;-74
2021/04/02 03:16:27;;;;;;;10.27;9.27;;;6.80;99.90;;;;;;4965465;28;20031;-75
2021/04/02 03:18:55;;;;;;;9.82;8.88;;;6.80;99.90;;;;;;4968301;28;20027;-75
2021/04/02 03:21:21;;;;;;;9.02;8.23;;;6.70;99.90;;;;;;4965479;28;20073;-75
2021/04/02 03:23:47;;;;;;;9.05;8.15;;;6.80;99.90;;;;;;4974601;28;20091;-75
2021/04/02 03:26:18;;;;;;;9.45;8.55;;;6.60;99.90;;;;;;4963811;28;20046;-74
2021/04/02 03:28:45;;;;;;;9.00;8.18;;;6.60;99.90;;;;;;4972026;28;20026;-74
2021/04/02 03:31:12;;;;;;;8.88;8.07;;;6.70;99.90;;;;;;4963221;28;20057;-75
2021/04/02 03:33:48;;;;;;;9.18;7.63;;;6.80;99.90;;;;;;4967993;28;20035;-75
2021/04/02 03:36:14;;;;;;;8.50;7.68;;;6.70;99.90;;;;;;4966954;28;20092;-74
2021/04/02 03:38:44;;;;;;;8.75;7.85;;;6.60;99.90;;;;;;4961812;28;20027;-74
2021/04/02 03:41:17;;;;;;;8.60;7.78;;;6.50;99.90;;;;;;4973144;28;20078;-74
2021/04/02 03:43:46;;;;;;;8.60;7.80;;;6.60;99.90;;;;;;4974113;28;20094;-73
2021/04/02 03:46:13;;;;;;;9.63;8.23;;;6.70;99.90;;;;;;4974198;28;20030;-73
2021/04/02 03:48:40;;;;;;;8.70;7.80;;;6.50;99.90;;;;;;4974304;28;20660;-73
2021/04/02 03:51:08;;;;;;;8.20;7.40;;;6.50;99.90;;;;;;4974256;28;20035;-74
2021/04/02 03:53:38;;;;;;;9.02;7.93;;;6.40;99.90;;;;;;4973971;28;20019;-74
2021/04/02 03:56:07;;;;;;;8.07;7.35;;;6.10;99.90;;;;;;4974016;28;20093;-74
2021/04/02 03:58:34;;;;;;;8.25;7.43;;;6.10;99.90;;;;;;4972651;28;20041;-73
2021/04/02 04:01:05;;;;;;;7.93;7.22;;;6.20;99.90;;;;;;4960841;28;20440;-73
2021/04/02 04:03:31;;;;;;;8.00;7.20;;;6.30;99.90;;;;;;4973539;28;20030;-73
2021/04/02 04:05:59;;;;;;;7.68;6.97;;;6.40;99.90;;;;;;4968798;28;20099;-73
2021/04/02 04:08:26;;;;;;;7.45;6.78;;;6.50;99.90;;;;;;4965438;28;20053;-73
2021/04/02 04:10:53;;;;;;;7.15;6.45;;;6.40;99.90;;;;;;4960687;28;20026;-76
2021/04/02 04:13:21;;;;;;;7.55;6.95;;;6.10;99.90;;;;;;4964187;28;20162;-75
2021/04/02 04:15:48;;;;;;;6.95;6.35;;;6.20;99.90;;;;;;4974033;28;20034;-75
2021/04/02 04:18:16;;;;;;;7.13;6.43;;;6.20;99.90;;;;;;4975382;28;20023;-76
2021/04/02 04:20:44;;;;;;;8.45;7.38;;;6.30;99.90;;;;;;4962947;28;20026;-76
2021/04/02 04:23:09;;;;;;;7.10;6.40;;;6.10;99.90;;;;;;4962800;28;20034;-74
2021/04/02 04:25:37;;;;;;;6.93;6.32;;;6.10;99.90;;;;;;4972798;28;20031;-76
2021/04/02 04:28:04;;;;;;;8.05;7.25;;;6.00;99.90;;;;;;4973904;28;20023;-74
2021/04/02 04:30:31;;;;;;;6.78;6.18;;;6.00;99.90;;;;;;4961836;28;20524;-74
2021/04/02 04:32:58;;;;;;;7.28;6.43;;;6.00;99.90;;;;;;4974815;28;20031;-73
2021/04/02 04:35:25;;;;;;;6.72;6.18;;;5.90;99.90;;;;;;4962082;28;20027;-74
2021/04/02 04:37:52;;;;;;;6.68;6.07;;;6.20;99.90;;;;;;4973728;28;20034;-75
2021/04/02 04:40:21;;;;;;;6.40;5.80;;;6.10;99.90;;;;;;4960109;28;20027;-74
2021/04/02 04:42:48;;;;;;;6.25;5.75;;;5.90;99.90;;;;;;4975144;28;20022;-74
2021/04/02 04:45:19;;;;;;;6.03;5.53;;;6.00;99.90;;;;;;4975672;28;20023;-74
2021/04/02 04:47:45;;;;;;;6.13;5.63;;;6.10;99.90;;;;;;4959631;28;20110;-75
2021/04/02 04:50:12;;;;;;;6.47;5.90;;;6.10;99.90;;;;;;4965156;28;20023;-75
2021/04/02 04:52:59;;;;;;;6.00;5.40;;;5.80;99.90;;;;;;4967311;28;20035;-75
2021/04/02 04:55:26;;;;;;;5.25;4.75;;;5.70;99.90;;;;;;4972685;28;20158;-75
2021/04/02 04:57:54;;;;;;;6.07;5.57;;;6.00;99.90;;;;;;4968775;28;20031;-75
2021/04/02 05:00:22;;;;;;;5.45;5.05;;;6.00;99.90;;;;;;4964192;28;20022;-75
2021/04/02 05:02:49;;;;;;;4.85;4.45;;;5.90;99.90;;;;;;4960280;28;20099;-75
2021/04/02 05:05:21;;;;;;;5.40;5.00;;;6.10;99.90;;;;;;4972922;28;20074;-75
2021/04/02 05:07:49;;;;;;;5.95;5.30;;;6.10;99.90;;;;;;4960048;28;20023;-73
2021/04/02 05:10:17;;;;;;;6.70;5.30;;;6.20;99.90;;;;;;4973083;28;20613;-73
2021/04/02 05:12:44;;;;;;;5.68;5.18;;;6.10;99.90;;;;;;4971881;28;20077;-73
2021/04/02 05:15:11;;;;;;;6.07;5.57;;;6.20;99.90;;;;;;4972532;28;20031;-74
2021/04/02 05:17:38;;;;;;;5.57;5.10;;;6.10;99.90;;;;;;4963316;28;20034;-73
2021/04/02 05:20:04;;;;;;;5.45;4.95;;;6.20;99.90;;;;;;4977321;28;20110;-73
2021/04/02 05:22:30;;;;;;;5.35;4.88;;;6.30;99.90;;;;;;4962985;28;20034;-74
2021/04/02 05:24:55;;;;;;;6.05;5.55;;;6.40;99.90;;;;;;4968772;28;20417;-73
2021/04/02 05:27:21;;;;;;;5.90;5.30;;;6.50;99.90;;;;;;4976976;28;20086;-73
2021/04/02 05:29:46;;;;;;;5.43;4.93;;;6.40;99.90;;;;;;4972487;28;20036;-73
2021/04/02 05:32:12;;;;;;;5.40;4.95;;;6.50;99.90;;;;;;4972413;28;20038;-73
2021/04/02 05:34:37;;;;;;;5.35;4.93;;;6.60;99.90;;;;;;4970420;28;20053;-73
2021/04/02 05:37:03;;;;;;;5.40;4.90;;;6.70;99.90;;;;;;4976809;28;20062;-73
2021/04/02 05:39:28;;;;;;;5.32;4.90;;;6.80;99.90;;;;;;4963848;28;20039;-73
2021/04/02 05:42:02;;;;;;;5.53;5.03;;;6.80;99.90;;;;;;4971979;28;20097;-73
2021/04/02 05:44:31;;;;;;;5.65;5.15;;;6.80;99.90;;;;;;4967025;28;20633;-74
2021/04/02 05:47:02;;;;;;;6.50;5.90;;;6.80;99.90;;;;;;4965554;28;20034;-73
2021/04/02 05:49:28;;;;;;;5.53;4.93;;;6.80;99.90;;;;;;4975100;28;20418;-72
2021/04/02 05:51:56;;;;;;;5.57;5.10;;;6.80;99.90;;;;;;4964356;28;20034;-72
2021/04/02 05:54:35;;;;;;;5.80;5.28;;;6.80;99.90;;;;;;4962446;28;20096;-73
2021/04/02 05:57:01;;;;;;;5.70;5.20;;;6.80;99.90;;;;;;4966686;28;20027;-73
2021/04/02 05:59:28;;;;;;;5.45;4.80;;;6.80;99.90;;;;;;4970037;28;20034;-73
2021/04/02 06:01:55;;;;;;;5.15;4.75;;;6.90;99.90;;;;;;4967679;28;20085;-73
2021/04/02 06:04:21;;;;;;;5.57;5.07;;;6.90;99.90;;;;;;4962018;28;20026;-73
2021/04/02 06:06:48;;;;;;;7.57;5.47;;;6.80;99.90;;;;;;4966279;28;20035;-73
2021/04/02 06:09:14;;;;;;;5.68;5.18;;;6.80;99.90;;;;;;4973024;28;20556;-73
2021/04/02 06:11:40;;;;;;;5.80;5.20;;;6.90;99.90;;;;;;4976466;28;20042;-73
2021/04/02 06:14:07;;;;;;;6.20;5.70;;;7.00;99.90;;;;;;4976112;28;20034;-73
2021/04/02 06:16:32;;;;;;;5.50;5.00;;;6.90;99.90;;;;;;4964512;28;20039;-73
2021/04/02 06:19:09;;;;;;;5.97;5.47;;;7.00;99.90;;;;;;4972777;28;20042;-73
2021/04/02 06:22:05;;;;;;;5.82;5.32;;;6.90;99.90;;;;;;4967588;28;20031;-73
2021/04/02 06:24:42;;;;;;;5.40;4.30;;;6.90;99.90;;;;;;4970429;28;20043;-73
2021/04/02 06:27:10;;;;;;;6.03;5.53;;;6.90;99.90;;;;;;4975450;28;20026;-73
2021/04/02 06:29:38;;;;;;;5.70;5.20;;;6.90;99.90;;;;;;4974920;28;20035;-73
2021/04/02 06:32:06;;;;;;;5.60;5.10;;;6.80;99.90;;;;;;4974700;28;20027;-72
2021/04/02 06:34:31;;;;;;;5.63;4.95;;;6.90;99.90;;;;;;4974233;28;20038;-73
2021/04/02 06:37:02;;;;;;;5.72;5.22;;;6.90;99.90;;;;;;4970928;28;20550;-73
2021/04/02 06:39:32;;;;;;;5.45;4.80;;;7.10;99.90;;;;;;4969393;28;20118;-73
2021/04/02 06:42:01;;;;;;;5.32;4.82;;;6.90;99.90;;;;;;4975876;28;20018;-73
2021/04/02 06:44:30;;;;;;;4.90;4.50;;;6.80;99.90;;;;;;4962874;28;20489;-73
2021/04/02 06:46:58;;;;;;;4.90;4.50;;;6.80;99.90;;;;;;4975826;28;20019;-73
2021/04/02 06:49:24;;;;;;;4.57;4.18;;;6.90;99.90;;;;;;4975087;28;20041;-73
2021/04/02 06:51:51;;;;;;;4.30;3.90;;;7.00;99.90;;;;;;4975592;28;20031;-73
2021/04/02 06:54:19;;;;;;;4.57;4.18;;;7.00;99.90;;;;;;4973933;28;20054;-73
2021/04/02 06:56:49;;;;;;;4.95;4.55;;;7.00;99.90;;;;;;4973684;28;20027;-73
2021/04/02 06:59:17;;;;;;;5.68;5.18;;;7.10;99.90;;;;;;4974648;28;20035;-73
2021/04/02 07:01:48;;;;;;;5.03;4.63;;;7.00;99.90;;;;;;4975071;28;20035;-71
2021/04/02 07:04:14;;;;;;;5.00;4.60;;;7.00;99.90;;;;;;4974846;28;20031;-73
2021/04/02 07:06:41;;;;;;;5.82;5.22;;;6.90;99.90;;;;;;4974873;28;20031;-73
2021/04/02 07:09:09;;;;;;;5.72;5.22;;;7.00;99.90;;;;;;4962130;28;20054;-73
2021/04/02 07:11:37;;;;;;;5.40;4.97;;;7.10;99.90;;;;;;4963733;28;20031;-73
2021/04/02 07:14:07;;;;;;;5.45;4.95;;;7.10;99.90;;;;;;4972757;28;20481;-73
2021/04/02 07:16:34;;;;;;;5.15;4.65;;;7.30;99.90;;;;;;4975267;28;20166;-72
2021/04/02 07:19:01;;;;;;;5.90;5.30;;;7.00;99.90;;;;;;4960447;28;20101;-72
2021/04/02 07:21:30;;;;;;;6.28;4.90;;;7.10;99.90;;;;;;4974810;28;20485;-73
2021/04/02 07:23:57;;;;;;;5.53;5.03;;;7.00;99.90;;;;;;4974722;28;20134;-71
2021/04/02 07:26:23;;;;;;;5.63;5.13;;;7.10;99.90;;;;;;4974688;28;20035;-73
2021/04/02 07:28:49;;;;;;;5.15;4.65;;;7.10;99.90;;;;;;4974623;28;20030;-73
2021/04/02 07:31:17;;;;;;;5.20;4.70;;;7.20;99.90;;;;;;4974153;28;20485;-73
2021/04/02 07:33:44;;;;;;;5.28;4.50;;;7.20;99.90;;;;;;4974320;28;20018;-73
2021/04/02 07:36:12;;;;;;;6.47;5.43;;;7.20;99.90;;;;;;4973216;28;20037;-73
2021/04/02 07:38:39;;;;;;;7.70;6.97;;;7.30;99.90;;;;;;4968067;28;20115;-73
2021/04/02 07:41:15;;;;;;;9.85;8.75;;;7.30;99.90;;;;;;4968152;28;20034;-72
2021/04/02 07:43:51;;;;;;;8.70;7.72;;;7.20;99.90;;;;;;4958330;28;20392;-73
2021/04/02 07:46:20;;;;;;;8.63;7.53;;;7.30;99.90;;;;;;4969434;28;20544;-72
2021/04/02 07:48:50;;;;;;;9.68;8.15;;;7.20;99.90;;;;;;4969898;28;20031;-73
2021/04/02 07:51:19;;;;;;;8.60;7.70;;;7.20;99.90;;;;;;4971127;28;20030;-72
2021/04/02 07:53:45;;;;;;;9.23;7.90;;;7.50;99.90;;;;;;4974066;28;20019;-73
2021/04/02 07:56:21;;;;;;;8.88;7.82;;;7.60;99.90;;;;;;4972677;28;20027;-73
2021/04/02 07:58:52;;;;;;;8.50;7.60;;;7.60;99.90;;;;;;4962445;28;20027;-73
2021/04/02 08:01:23;;;;;;;8.55;7.40;;;7.60;99.90;;;;;;4967037;28;20528;-72
2021/04/02 08:03:50;;;;;;;7.88;7.07;;;7.60;99.90;;;;;;4965828;28;20626;-72
2021/04/02 08:06:30;;;;;;;6.50;5.90;;;7.70;99.90;;;;;;4960991;28;20019;-73
2021/04/02 08:08:56;;;;;;;5.25;4.72;;;7.60;99.90;;;;;;4974014;28;20023;-73
2021/04/02 08:11:45;;;;;;;6.07;5.32;;;7.50;99.90;;;;;;4966391;28;20023;-73
2021/04/02 08:14:13;;;;;;;5.95;5.13;;;7.70;99.90;;;;;;4970323;28;20401;-72
2021/04/02 08:16:42;;;;;;;5.13;4.63;;;7.70;99.90;;;;;;4973660;28;20047;-73
2021/04/02 08:19:10;;;;;;;5.85;5.25;;;7.70;99.90;;;;;;4972300;28;20027;-73
2021/04/02 08:21:37;;;;;;;5.35;4.85;;;7.70;99.90;;;;;;4973658;28;20018;-73
2021/04/02 08:24:07;;;;;;;5.82;5.13;;;7.70;99.90;;;;;;4959618;28;20027;-73
2021/04/02 08:26:35;;;;;;;6.72;4.97;;;7.50;99.90;;;;;;4967526;28;20034;-73
2021/04/02 08:29:02;;;;;;;6.30;5.05;;;7.70;99.90;;;;;;4973469;28;20393;-73
2021/04/02 08:31:28;;;;;;;5.90;4.75;;;7.70;99.90;;;;;;4973269;28;20043;-73
2021/04/02 08:33:55;;;;;;;5.35;4.60;;;7.70;99.90;;;;;;4973342;28;20398;-73
2021/04/02 08:36:22;;;;;;;5.05;4.55;;;7.70;99.90;;;;;;4972169;28;20034;-72
2021/04/02 08:38:49;;;;;;;5.05;4.40;;;7.80;99.90;;;;;;4961652;28;20027;-72
2021/04/02 08:41:17;;;;;;;5.22;4.30;;;7.80;99.90;;;;;;4959122;28;20019;-73
2021/04/02 08:43:42;;;;;;;4.25;3.85;;;7.80;99.90;;;;;;4962492;28;20042;-72
2021/04/02 08:46:08;;;;;;;3.92;3.50;;;7.90;99.90;;;;;;4973253;28;20072;-73
2021/04/02 08:48:33;;;;;;;4.97;4.20;;;8.20;99.90;;;;;;4973165;28;20478;-73
2021/04/02 08:51:00;;;;;;;5.93;4.75;;;8.20;99.90;;;;;;4971287;28;20077;-73
2021/04/02 08:53:39;;;;;;;6.57;5.30;;;8.10;99.90;;;;;;4972988;28;20051;-72
2021/04/02 08:56:05;;;;;;;6.13;5.18;;;8.30;99.90;;;;;;4973108;28;20019;-72
2021/04/02 08:58:31;;;;;;;5.47;4.90;;;8.50;99.90;;;;;;4971722;28;20034;-72
2021/04/02 09:00:57;;;;;;;7.28;5.70;;;8.60;99.90;;;;;;4973174;28;20045;-73
2021/04/02 09:03:22;;;;;;;8.23;6.07;;;8.60;99.90;;;;;;4963482;28;20106;-72
2021/04/02 09:05:48;;;;;;;6.95;5.63;;;8.60;99.90;;;;;;4969413;28;20102;-72
2021/04/02 09:08:14;;;;;;;7.35;5.88;;;8.70;99.90;;;;;;4971693;28;20023;-73
2021/04/02 09:10:40;;;;;;;7.03;5.38;;;9.00;99.90;;;;;;4969808;28;20100;-73
2021/04/02 09:13:06;;;;;;;7.07;5.32;;;8.90;99.90;;;;;;4963355;28;20085;-73
2021/04/02 09:15:33;;;;;;;6.45;5.32;;;8.90;99.90;;;;;;4959640;28;20088;-73
2021/04/02 09:18:17;;;;;;;7.25;5.40;;;8.80;99.90;;;;;;4973269;28;20030;-72
2021/04/02 09:20:44;;;;;;;5.20;4.15;;;8.70;99.90;;;;;;4971648;28;20022;-72
2021/04/02 09:23:09;;;;;;;8.38;5.43;;;8.90;99.90;;;;;;4973106;28;20023;-73
2021/04/02 09:25:42;;;;;;;6.68;5.20;;;8.80;99.90;;;;;;4971239;28;20038;-73
2021/04/02 09:28:08;;;;;;;6.03;4.80;;;8.80;99.90;;;;;;4972695;28;20027;-73
2021/04/02 09:30:34;;;;;;;6.25;5.20;;;9.00;99.90;;;;;;4966102;28;20042;-73
2021/04/02 09:32:59;;;;;;;5.78;4.40;;;9.00;99.90;;;;;;4966449;28;20035;-73
2021/04/02 09:35:25;;;;;;;4.68;3.92;;;9.10;99.90;;;;;;4959824;28;20504;-73
2021/04/02 09:37:51;;;;;;;4.32;3.80;;;9.10;99.90;;;;;;4960073;28;20035;-73
2021/04/02 09:40:17;;;;;;;4.35;3.70;;;9.20;99.90;;;;;;4972567;28;20027;-73
2021/04/02 09:42:47;;;;;;;4.40;4.00;;;9.20;99.90;;;;;;4972794;28;20023;-73
2021/04/02 09:45:13;;;;;;;4.00;3.60;;;9.10;99.90;;;;;;4960092;28;20456;-73
2021/04/02 09:47:47;;;;;;;3.90;3.22;;;9.00;99.90;;;;;;4972271;28;20117;-73
2021/04/02 09:50:15;;;;;;;3.80;3.40;;;8.90;99.90;;;;;;4961307;28;20362;-73
2021/04/02 09:52:43;;;;;;;3.50;3.20;;;9.00;99.90;;;;;;4972431;28;20469;-73
2021/04/02 09:55:09;;;;;;;4.68;3.70;;;9.00;99.90;;;;;;4972306;28;20077;-73
2021/04/02 09:57:35;;;;;;;3.90;3.47;;;9.20;99.90;;;;;;4970794;28;20027;-72
2021/04/02 10:00:01;;;;;;;3.50;3.20;;;8.90;99.90;;;;;;4967605;28;20090;-73
2021/04/02 10:02:27;;;;;;;3.78;3.20;;;9.00;99.90;;;;;;4974445;28;20042;-73
2021/04/02 10:04:53;;;;;;;4.82;3.45;;;9.00;99.90;;;;;;4974824;28;20654;-72
2021/04/02 10:07:19;;;;;;;6.10;5.50;;;9.00;99.90;;;;;;4963028;28;20028;-73
2021/04/02 10:09:45;;;;;;;3.40;3.10;;;8.90;99.90;;;;;;4967805;28;20031;-72
2021/04/02 10:12:10;;;;;;;3.75;3.15;;;8.90;99.90;;;;;;4971437;28;20027;-73
2021/04/02 10:14:36;;;;;;;3.25;2.97;;;8.80;99.90;;;;;;4975527;28;20027;-73
2021/04/02 10:17:03;;;;;;;3.15;2.85;;;9.00;99.90;;;;;;4963058;28;20031;-73
2021/04/02 10:19:32;;;;;;;3.22;2.92;;;9.30;99.90;;;;;;4967375;28;20059;-73
2021/04/02 10:21:57;;;;;;;3.40;3.10;;;9.00;99.90;;;;;;4971651;28;20049;-73
2021/04/02 10:24:23;;;;;;;4.30;3.40;;;8.90;99.90;;;;;;4975261;28;20050;-72
2021/04/02 10:26:48;;;;;;;3.47;3.17;;;9.00;99.90;;;;;;4975417;28;20043;-73
2021/04/02 10:29:14;;;;;;;3.90;3.10;;;9.00;99.90;;;;;;4975670;28;20027;-73
2021/04/02 10:31:39;;;;;;;3.63;3.33;;;9.10;99.90;;;;;;4962600;28;20034;-73
2021/04/02 10:34:05;;;;;;;4.72;3.85;;;9.00;99.90;;;;;;4975458;28;20031;-73
2021/04/02 10:36:31;;;;;;;3.78;3.47;;;9.20;99.90;;;;;;4975439;28;20030;-73
2021/04/02 10:38:56;;;;;;;4.40;3.63;;;9.20;99.90;;;;;;4965580;28;20027;-73
2021/04/02 10:41:22;;;;;;;3.50;3.20;;;9.10;99.90;;;;;;4971400;28;20023;-73
2021/04/02 10:43:47;;;;;;;3.90;3.58;;;9.30;99.90;;;;;;4975480;28;20023;-73
2021/04/02 10:46:13;;;;;;;3.50;3.20;;;9.00;99.90;;;;;;4962561;28;20027;-72
2021/04/02 10:48:39;;;;;;;3.70;3.40;;;9.10;99.90;;;;;;4975574;28;20030;-72
2021/04/02 10:51:05;;;;;;;3.88;3.58;;;9.00;99.90;;;;;;4974191;28;20496;-73
2021/04/02 10:53:31;;;;;;;3.33;3.03;;;9.10;99.90;;;;;;4966859;28;20163;-72
2021/04/02 10:56:03;;;;;;;3.33;3.03;;;9.40;99.90;;;;;;4970370;28;20496;-72
2021/04/02 10:58:30;;;;;;;3.83;3.15;;;9.50;99.90;;;;;;4970693;28;20508;-73
2021/04/02 11:00:56;;;;;;;3.42;3.10;;;9.30;99.90;;;;;;4966552;28;20114;-72
2021/04/02 11:03:21;;;;;;;3.25;2.90;;;9.40;99.90;;;;;;4964159;28;20108;-73
2021/04/02 11:05:47;;;;;;;3.35;3.05;;;9.40;99.90;;;;;;4974325;28;20023;-72
2021/04/02 11:08:13;;;;;;;3.13;2.92;;;9.50;99.90;;;;;;4975262;28;20027;-73
2021/04/02 11:10:38;;;;;;;3.75;3.45;;;9.50;99.90;;;;;;4974068;28;20478;-72
2021/04/02 11:13:04;;;;;;;3.60;3.30;;;9.80;99.90;;;;;;4974540;28;20026;-73
2021/04/02 11:15:29;;;;;;;3.42;3.13;;;9.80;99.90;;;;;;4974218;28;20058;-72
2021/04/02 11:17:55;;;;;;;3.55;3.25;;;9.90;99.90;;;;;;4974778;28;20069;-73
2021/04/02 11:20:25;;;;;;;3.63;3.33;;;9.80;99.90;;;;;;4974583;28;20453;-72
2021/04/02 11:22:51;;;;;;;3.40;3.10;;;9.90;99.90;;;;;;4974810;28;20022;-73
2021/04/02 11:25:16;;;;;;;3.80;3.40;;;10.00;99.90;;;;;;4973156;28;20034;-73
2021/04/02 11:27:42;;;;;;;3.75;3.45;;;10.30;99.90;;;;;;4973474;28;20027;-73
2021/04/02 11:30:11;;;;;;;4.28;3.20;;;10.30;99.90;;;;;;4973422;28;20113;-73
2021/04/02 11:32:37;;;;;;;3.47;3.17;;;10.60;99.90;;;;;;4964850;28;20035;-72
2021/04/02 11:35:03;;;;;;;3.55;3.25;;;10.60;99.90;;;;;;4967889;28;20552;-73
2021/04/02 11:37:28;;;;;;;3.53;3.20;;;10.80;99.90;;;;;;4963519;28;20023;-73
2021/04/02 11:39:54;;;;;;;3.70;3.40;;;10.50;99.90;;;;;;4961665;28;20026;-73
2021/04/02 11:42:19;;;;;;;3.45;3.15;;;10.50;99.90;;;;;;4974442;28;20057;-73
2021/04/02 11:44:45;;;;;;;3.83;3.53;;;10.30;99.90;;;;;;4974017;28;20085;-73
2021/04/02 11:47:10;;;;;;;3.88;3.42;;;10.60;99.90;;;;;;4974287;28;20517;-73
2021/04/02 11:49:38;;;;;;;3.70;3.40;;;10.70;99.90;;;;;;4971366;28;20038;-73
2021/04/02 11:52:05;;;;;;;3.75;3.45;;;10.60;99.90;;;;;;4963188;28;20489;-73
2021/04/02 11:54:31;;;;;;;3.67;3.25;;;10.90;99.90;;;;;;4970763;28;20034;-73
2021/04/02 11:56:56;;;;;;;3.85;3.47;;;10.90;99.90;;;;;;4974056;28;20026;-73
2021/04/02 11:59:22;;;;;;;3.67;3.38;;;10.80;99.90;;;;;;4964982;28;20437;-73
2021/04/02 12:01:47;;;;;;;4.20;3.65;;;11.00;99.90;;;;;;4964066;28;20031;-73
2021/04/02 12:04:14;;;;;;;3.85;3.55;;;11.00;99.90;;;;;;4964657;28;20482;-73
2021/04/02 12:06:40;;;;;;;3.60;3.30;;;10.80;99.90;;;;;;4963805;28;20074;-73
2021/04/02 12:09:07;;;;;;;3.58;3.28;;;11.10;99.90;;;;;;4973810;28;20520;-73
2021/04/02 12:11:33;;;;;;;3.80;3.50;;;11.40;99.90;;;;;;4973613;28;20461;-72
2021/04/02 12:13:59;;;;;;;4.18;3.28;;;11.60;99.90;;;;;;4972938;28;20118;-72
2021/04/02 12:16:25;;;;;;;3.60;3.30;;;11.80;99.90;;;;;;4967436;28;20055;-71
2021/04/02 12:18:51;;;;;;;4.10;3.60;;;11.60;99.90;;;;;;4964219;28;20121;-72
2021/04/02 12:21:17;;;;;;;4.10;3.60;;;11.50;99.90;;;;;;4972226;28;20023;-72
2021/04/02 12:23:43;;;;;;;3.80;3.40;;;11.40;99.90;;;;;;4969987;28;20038;-72
2021/04/02 12:26:08;;;;;;;3.58;3.28;;;11.60;99.90;;;;;;4970727;28;20030;-74
2021/04/02 12:28:34;;;;;;;3.63;3.28;;;11.70;99.90;;;;;;4973524;28;20030;-73
2021/04/02 12:31:01;;;;;;;3.25;2.95;;;11.50;99.90;;;;;;4970956;28;20030;-73
2021/04/02 12:33:31;;;;;;;3.03;2.72;;;11.50;99.90;;;;;;4967256;28;20024;-73
2021/04/02 12:35:57;;;;;;;3.80;3.50;;;11.60;99.90;;;;;;4965129;28;20034;-73
2021/04/02 12:38:23;;;;;;;3.55;3.13;;;12.10;99.90;;;;;;4959484;28;20393;-73
2021/04/02 12:40:49;;;;;;;3.83;3.53;;;12.00;99.90;;;;;;4962574;28;20042;-73
2021/04/02 12:43:14;;;;;;;3.67;3.38;;;13.90;99.90;;;;;;4971723;28;20027;-74
2021/04/02 12:45:40;;;;;;;3.30;3.00;;;14.70;99.90;;;;;;4973334;28;20023;-73
2021/04/02 12:48:06;;;;;;;3.55;3.25;;;13.90;99.90;;;;;;4973363;28;20034;-73
2021/04/02 12:50:32;;;;;;;3.42;3.13;;;14.50;99.90;;;;;;4973553;28;20402;-73
2021/04/02 12:52:58;;;;;;;3.42;2.90;;;14.30;99.90;;;;;;4973331;28;20027;-73